createdAt,value
2019-03-16T00:01:34.410Z,9.00
2019-03-16T00:04:15.201Z,9.00
2019-03-16T00:06:56.050Z,9.00
2019-03-16T00:09:36.772Z,9.00
2019-03-16T00:12:17.273Z,9.00
2019-03-16T00:14:58.110Z,9.00
2019-03-16T00:17:38.755Z,8.90
2019-03-16T00:20:19.542Z,8.90
2019-03-16T00:23:00.162Z,8.90
2019-03-16T00:25:41.154Z,8.80
2019-03-16T00:28:21.954Z,8.90
2019-03-16T00:31:02.637Z,8.90
2019-03-16T00:33:43.674Z,8.80
2019-03-16T00:36:24.614Z,8.90
2019-03-16T00:39:05.042Z,8.90
2019-03-16T00:41:45.894Z,8.90
2019-03-16T00:44:26.461Z,8.80
2019-03-16T00:47:07.317Z,8.90
2019-03-16T00:49:48.074Z,8.90
2019-03-16T00:52:28.493Z,8.90
2019-03-16T00:55:09.330Z,8.90
2019-03-16T00:57:49.978Z,8.90
2019-03-16T01:00:30.882Z,9.00
2019-03-16T01:03:11.512Z,8.80
2019-03-16T01:05:52.071Z,8.90
2019-03-16T01:08:33.046Z,8.90
2019-03-16T01:11:13.630Z,8.90
2019-03-16T01:13:54.369Z,8.90
2019-03-16T01:16:34.949Z,8.90
2019-03-16T01:19:15.494Z,8.90
2019-03-16T01:21:54.554Z,8.80
2019-03-16T01:24:42.695Z,8.90
2019-03-16T01:27:31.278Z,9.00
2019-03-16T01:30:19.401Z,8.80
2019-03-16T01:33:07.519Z,8.90
2019-03-16T01:35:55.556Z,8.90
2019-03-16T01:38:43.591Z,8.80
2019-03-16T01:41:31.725Z,8.90
2019-03-16T01:44:19.766Z,8.90
2019-03-16T01:47:07.809Z,8.70
2019-03-16T01:49:56.099Z,8.90
2019-03-16T01:52:44.205Z,8.80
2019-03-16T01:55:32.321Z,8.90
2019-03-16T01:58:20.602Z,8.90
2019-03-16T02:01:08.955Z,8.80
2019-03-16T02:03:56.994Z,8.80
2019-03-16T02:06:45.033Z,8.80
2019-03-16T02:09:33.065Z,8.80
2019-03-16T02:12:21.342Z,8.80
2019-03-16T02:15:09.455Z,8.80
2019-03-16T02:17:57.558Z,8.80
2019-03-16T02:20:45.597Z,8.80
2019-03-16T02:23:33.638Z,8.80
2019-03-16T02:26:21.935Z,8.80
2019-03-16T02:29:09.965Z,8.80
2019-03-16T02:31:50.446Z,8.80
2019-03-16T02:34:31.090Z,8.80
2019-03-16T02:37:12.290Z,8.80
2019-03-16T02:39:53.214Z,8.80
2019-03-16T02:42:34.395Z,8.80
2019-03-16T02:45:15.145Z,8.70
2019-03-16T02:47:55.850Z,8.80
2019-03-16T02:50:36.298Z,8.80
2019-03-16T02:53:16.847Z,8.80
2019-03-16T02:55:57.407Z,8.80
2019-03-16T02:58:38.602Z,8.70
2019-03-16T03:01:19.221Z,8.60
2019-03-16T03:03:59.635Z,8.70
2019-03-16T03:06:40.138Z,8.70
2019-03-16T03:09:20.515Z,8.70
2019-03-16T03:12:01.227Z,8.70
2019-03-16T03:14:42.406Z,8.70
2019-03-16T03:17:22.879Z,8.70
2019-03-16T03:20:03.822Z,8.70
2019-03-16T03:22:44.419Z,8.70
2019-03-16T03:25:24.798Z,8.70
2019-03-16T03:28:05.359Z,8.80
2019-03-16T03:30:46.275Z,8.70
2019-03-16T03:33:27.281Z,8.70
2019-03-16T03:35:56.122Z,8.70
2019-03-16T03:38:44.237Z,8.70
2019-03-16T03:41:32.591Z,8.70
2019-03-16T03:44:20.709Z,8.70
2019-03-16T03:47:08.841Z,8.70
2019-03-16T03:49:56.947Z,8.60
2019-03-16T03:52:45.313Z,8.70
2019-03-16T03:55:33.430Z,8.50
2019-03-16T03:58:21.792Z,8.60
2019-03-16T04:01:09.910Z,8.50
2019-03-16T04:04:14.414Z,8.50
2019-03-16T04:06:47.847Z,8.60
2019-03-16T04:09:35.968Z,8.60
2019-03-16T04:12:24.055Z,8.50
2019-03-16T04:15:12.187Z,8.50
2019-03-16T04:18:00.222Z,8.40
2019-03-16T04:20:48.273Z,8.50
2019-03-16T04:23:36.298Z,8.50
2019-03-16T04:26:24.416Z,8.50
2019-03-16T04:29:12.817Z,8.50
2019-03-16T04:31:53.409Z,8.50
2019-03-16T04:34:33.998Z,8.50
2019-03-16T04:37:14.480Z,8.50
2019-03-16T04:39:55.046Z,8.50
2019-03-16T04:42:35.761Z,8.40
2019-03-16T04:45:16.553Z,8.40
2019-03-16T04:47:57.637Z,8.40
2019-03-16T04:50:38.054Z,8.40
2019-03-16T04:53:18.657Z,8.30
2019-03-16T04:55:59.559Z,8.40
2019-03-16T04:58:40.126Z,8.40
2019-03-16T05:01:20.833Z,8.40
2019-03-16T05:04:01.417Z,8.40
2019-03-16T05:06:42.075Z,8.40
2019-03-16T05:09:22.555Z,7.50
2019-03-16T05:12:03.338Z,8.20
2019-03-16T05:14:44.003Z,8.30
2019-03-16T05:17:24.537Z,8.40
2019-03-16T05:20:05.261Z,8.40
2019-03-16T05:22:45.866Z,8.30
2019-03-16T05:25:27.070Z,8.40
2019-03-16T05:28:07.696Z,8.40
2019-03-16T05:30:48.180Z,8.30
2019-03-16T05:33:28.850Z,8.40
2019-03-16T05:36:09.570Z,8.40
2019-03-16T05:38:50.432Z,8.20
2019-03-16T05:41:31.191Z,8.40
2019-03-16T05:44:11.821Z,8.30
2019-03-16T05:46:52.377Z,8.30
2019-03-16T05:49:32.921Z,8.30
2019-03-16T05:52:13.602Z,8.30
2019-03-16T05:54:54.268Z,8.30
2019-03-16T05:57:35.078Z,8.20
2019-03-16T06:00:15.583Z,8.30
2019-03-16T06:02:56.067Z,8.30
2019-03-16T06:05:36.866Z,8.20
2019-03-16T06:08:17.537Z,8.20
2019-03-16T06:10:58.361Z,8.20
2019-03-16T06:13:39.190Z,8.20
2019-03-16T06:16:19.913Z,8.30
2019-03-16T06:19:00.532Z,8.20
2019-03-16T06:21:41.204Z,8.10
2019-03-16T06:24:21.830Z,8.20
2019-03-16T06:27:02.440Z,8.20
2019-03-16T06:29:43.351Z,8.20
2019-03-16T06:32:24.089Z,8.20
2019-03-16T06:35:05.101Z,8.10
2019-03-16T06:37:45.815Z,8.20
2019-03-16T06:40:26.737Z,8.30
2019-03-16T06:43:07.351Z,8.30
2019-03-16T06:45:48.210Z,8.20
2019-03-16T06:48:28.937Z,8.30
2019-03-16T06:51:09.630Z,8.30
2019-03-16T06:53:50.169Z,8.20
2019-03-16T06:56:30.758Z,8.40
2019-03-16T06:59:11.594Z,8.20
2019-03-16T07:01:52.293Z,8.30
2019-03-16T07:04:33.356Z,8.20
2019-03-16T07:07:14.082Z,8.40
2019-03-16T07:09:54.636Z,8.30
2019-03-16T07:12:35.494Z,8.30
2019-03-16T07:15:16.052Z,8.30
2019-03-16T07:17:56.898Z,8.30
2019-03-16T07:20:37.638Z,8.30
2019-03-16T07:23:18.281Z,8.30
2019-03-16T07:25:59.113Z,8.30
2019-03-16T07:28:39.823Z,8.40
2019-03-16T07:31:20.507Z,8.30
2019-03-16T07:34:01.203Z,8.30
2019-03-16T07:36:41.741Z,8.30
2019-03-16T07:39:22.621Z,8.40
2019-03-16T07:42:03.426Z,8.50
2019-03-16T07:44:44.090Z,8.40
2019-03-16T07:47:25.214Z,8.40
2019-03-16T07:50:05.858Z,8.40
2019-03-16T07:52:46.728Z,8.40
2019-03-16T07:55:27.638Z,8.40
2019-03-16T07:58:08.357Z,8.40
2019-03-16T08:00:49.062Z,8.50
2019-03-16T08:03:29.987Z,8.40
2019-03-16T08:06:10.693Z,8.50
2019-03-16T08:08:51.451Z,8.50
2019-03-16T08:11:32.210Z,8.50
2019-03-16T08:14:12.979Z,8.50
2019-03-16T08:16:53.878Z,8.70
2019-03-16T08:19:34.394Z,8.70
2019-03-16T08:22:14.971Z,8.70
2019-03-16T08:24:55.747Z,8.90
2019-03-16T08:27:36.327Z,8.90
2019-03-16T08:30:17.097Z,9.00
2019-03-16T08:32:57.889Z,8.90
2019-03-16T08:35:38.734Z,8.90
2019-03-16T08:38:19.420Z,9.00
2019-03-16T08:41:00.415Z,8.90
2019-03-16T08:43:41.607Z,9.00
2019-03-16T08:46:22.054Z,9.00
2019-03-16T08:49:02.989Z,9.00
2019-03-16T08:51:43.618Z,9.00
2019-03-16T08:54:24.446Z,9.10
2019-03-16T08:57:04.822Z,9.00
2019-03-16T08:59:45.654Z,9.10
2019-03-16T09:02:26.253Z,9.10
2019-03-16T09:05:06.951Z,9.10
2019-03-16T09:07:47.594Z,9.10
2019-03-16T09:10:28.374Z,9.10
2019-03-16T09:13:09.007Z,9.10
2019-03-16T09:15:50.002Z,9.10
2019-03-16T09:18:30.554Z,9.10
2019-03-16T09:21:11.444Z,9.20
2019-03-16T09:23:52.169Z,9.20
2019-03-16T09:26:32.939Z,9.30
2019-03-16T09:29:15.127Z,9.40
2019-03-16T09:31:56.326Z,9.40
2019-03-16T09:34:36.902Z,9.70
2019-03-16T09:37:17.578Z,9.70
2019-03-16T09:39:58.209Z,9.80
2019-03-16T09:42:39.417Z,9.80
2019-03-16T09:45:19.857Z,9.60
2019-03-16T09:48:00.770Z,9.70
2019-03-16T09:50:41.558Z,9.60
2019-03-16T09:53:22.334Z,9.70
2019-03-16T09:56:02.973Z,9.60
2019-03-16T09:58:43.631Z,9.60
2019-03-16T10:01:24.350Z,9.60
2019-03-16T10:04:05.077Z,9.70
2019-03-16T10:06:45.808Z,9.90
2019-03-16T10:09:26.643Z,10.00
2019-03-16T10:12:07.402Z,10.00
2019-03-16T10:14:48.102Z,9.90
2019-03-16T10:17:28.966Z,10.00
2019-03-16T10:20:09.749Z,9.90
2019-03-16T10:22:50.402Z,9.90
2019-03-16T10:25:31.238Z,9.80
2019-03-16T10:28:11.889Z,9.70
2019-03-16T10:30:52.662Z,9.80
2019-03-16T10:33:33.273Z,9.80
2019-03-16T10:36:13.958Z,9.70
2019-03-16T10:38:54.621Z,9.60
2019-03-16T10:41:35.413Z,9.80
2019-03-16T10:44:16.138Z,9.90
2019-03-16T10:46:57.123Z,10.00
2019-03-16T10:49:37.686Z,10.10
2019-03-16T10:52:18.374Z,10.40
2019-03-16T10:54:58.934Z,10.60
2019-03-16T10:57:39.730Z,10.80
2019-03-16T11:00:20.687Z,11.00
2019-03-16T11:03:01.194Z,11.00
2019-03-16T11:09:04.397Z,10.90
2019-03-16T11:11:45.437Z,11.30
2019-03-16T11:14:26.057Z,11.60
2019-03-16T11:17:06.814Z,11.70
2019-03-16T11:19:47.303Z,11.60
2019-03-16T11:22:27.838Z,11.70
2019-03-16T11:25:08.705Z,12.00
2019-03-16T11:27:49.385Z,12.20
2019-03-16T11:30:30.074Z,12.50
2019-03-16T11:33:10.573Z,13.10
2019-03-16T11:35:51.295Z,13.50
2019-03-16T11:38:32.082Z,13.70
2019-03-16T11:41:12.597Z,13.70
2019-03-16T11:43:53.366Z,14.00
2019-03-16T11:46:34.689Z,13.90
2019-03-16T11:49:13.895Z,13.10
2019-03-16T11:52:01.929Z,12.50
2019-03-16T11:54:50.065Z,12.10
2019-03-16T11:57:38.219Z,11.80
2019-03-16T12:00:26.334Z,11.70
2019-03-16T12:03:14.660Z,11.90
2019-03-16T12:06:02.705Z,12.10
2019-03-16T12:08:50.844Z,12.50
2019-03-16T12:11:38.957Z,12.70
2019-03-16T12:14:27.009Z,12.60
2019-03-16T12:17:15.122Z,12.50
2019-03-16T12:20:03.265Z,12.20
2019-03-16T12:22:51.389Z,12.10
2019-03-16T12:25:39.505Z,12.10
2019-03-16T12:28:27.630Z,12.30
2019-03-16T12:30:56.634Z,12.80
2019-03-16T12:33:44.685Z,13.30
2019-03-16T12:36:32.798Z,13.60
2019-03-16T12:39:20.938Z,14.90
2019-03-16T12:42:08.982Z,14.50
2019-03-16T12:44:57.114Z,14.30
2019-03-16T12:47:45.229Z,13.60
2019-03-16T12:50:33.557Z,13.20
2019-03-16T12:53:21.680Z,13.00
2019-03-16T12:56:09.805Z,13.00
2019-03-16T12:59:09.489Z,13.40
2019-03-16T13:01:47.774Z,13.80
2019-03-16T13:04:35.989Z,13.60
2019-03-16T13:07:24.178Z,13.40
2019-03-16T13:10:12.504Z,13.30
2019-03-16T13:13:00.716Z,13.20
2019-03-16T13:15:48.930Z,13.80
2019-03-16T13:18:37.149Z,14.50
2019-03-16T13:21:25.277Z,14.00
2019-03-16T13:24:13.631Z,14.00
2019-03-16T13:27:01.745Z,13.60
2019-03-16T13:29:58.439Z,13.50
2019-03-16T13:32:32.919Z,13.20
2019-03-16T13:35:13.705Z,13.30
2019-03-16T13:37:54.477Z,13.50
2019-03-16T13:40:35.429Z,13.90
2019-03-16T13:43:16.546Z,15.30
2019-03-16T13:45:57.066Z,15.90
2019-03-16T13:48:37.768Z,15.60
2019-03-16T13:51:18.367Z,14.60
2019-03-16T13:53:59.075Z,14.30
2019-03-16T13:56:39.697Z,14.60
2019-03-16T13:59:20.310Z,14.60
2019-03-16T14:02:01.237Z,14.10
2019-03-16T14:04:41.848Z,13.70
2019-03-16T14:07:22.622Z,14.30
2019-03-16T14:10:03.501Z,15.50
2019-03-16T14:12:44.209Z,16.70
2019-03-16T14:15:24.985Z,16.20
2019-03-16T14:18:05.598Z,15.80
2019-03-16T14:20:46.485Z,15.50
2019-03-16T14:23:27.370Z,14.80
2019-03-16T14:26:07.806Z,14.30
2019-03-16T14:31:53.597Z,14.60
2019-03-16T14:34:34.387Z,15.10
2019-03-16T14:37:14.922Z,16.30
2019-03-16T14:39:55.686Z,17.30
2019-03-16T14:42:36.330Z,16.70
2019-03-16T14:45:16.868Z,15.60
2019-03-16T14:47:57.234Z,14.40
2019-03-16T14:50:37.664Z,14.00
2019-03-16T14:53:18.575Z,13.50
2019-03-16T14:56:00.530Z,13.30
2019-03-16T14:58:40.890Z,13.20
2019-03-16T15:01:09.970Z,13.10
2019-03-16T15:03:58.055Z,13.00
2019-03-16T15:06:46.170Z,13.00
2019-03-16T15:09:34.225Z,13.00
2019-03-16T15:12:22.565Z,13.00
2019-03-16T15:15:11.046Z,13.00
2019-03-16T15:17:59.300Z,12.90
2019-03-16T15:20:47.610Z,12.70
2019-03-16T15:23:35.720Z,13.00
2019-03-16T15:26:23.761Z,13.00
2019-03-16T15:29:12.058Z,13.10
2019-03-16T15:32:00.107Z,13.10
2019-03-16T15:34:29.009Z,12.90
2019-03-16T15:37:17.074Z,13.00
2019-03-16T15:40:05.138Z,13.10
2019-03-16T15:42:53.275Z,13.20
2019-03-16T15:45:41.325Z,13.20
2019-03-16T15:48:29.377Z,13.20
2019-03-16T15:51:17.504Z,13.10
2019-03-16T15:54:05.549Z,13.00
2019-03-16T15:56:46.422Z,12.80
2019-03-16T15:59:27.270Z,12.60
2019-03-16T16:02:08.001Z,12.50
2019-03-16T16:04:48.615Z,12.60
2019-03-16T16:07:29.377Z,12.50
2019-03-16T16:10:09.882Z,12.50
2019-03-16T16:12:50.483Z,12.30
2019-03-16T16:15:31.369Z,12.20
2019-03-16T16:18:12.064Z,12.20
2019-03-16T16:20:52.665Z,12.20
2019-03-16T16:23:33.653Z,12.10
2019-03-16T16:26:14.453Z,12.00
2019-03-16T16:28:55.275Z,12.00
2019-03-16T16:31:35.977Z,12.00
2019-03-16T16:34:16.582Z,12.00
2019-03-16T16:36:57.243Z,12.00
2019-03-16T16:39:38.105Z,11.80
2019-03-16T16:42:18.917Z,11.70
2019-03-16T16:44:59.756Z,11.70
2019-03-16T16:47:40.726Z,11.80
2019-03-16T16:50:21.750Z,11.60
2019-03-16T16:53:02.416Z,11.50
2019-03-16T16:55:43.098Z,11.60
2019-03-16T16:58:23.470Z,11.50
2019-03-16T17:01:03.941Z,11.30
2019-03-16T17:03:32.795Z,11.20
2019-03-16T17:06:20.849Z,11.10
2019-03-16T17:09:08.973Z,11.00
2019-03-16T17:11:57.021Z,10.80
2019-03-16T17:14:45.121Z,10.70
2019-03-16T17:17:35.392Z,10.50
2019-03-16T17:20:22.931Z,10.40
2019-03-16T17:23:11.118Z,10.20
2019-03-16T17:25:59.170Z,10.10
2019-03-16T17:28:47.254Z,9.90
2019-03-16T17:31:42.098Z,9.80
2019-03-16T17:34:25.061Z,9.60
2019-03-16T17:37:13.102Z,9.50
2019-03-16T17:40:01.143Z,9.30
2019-03-16T17:42:49.177Z,9.00
2019-03-16T17:45:37.225Z,9.00
2019-03-16T17:48:25.286Z,8.60
2019-03-16T17:51:13.409Z,8.60
2019-03-16T17:54:01.458Z,8.40
2019-03-16T17:56:42.235Z,8.30
2019-03-16T17:59:24.025Z,8.10
2019-03-16T18:02:04.543Z,8.00
2019-03-16T18:04:45.403Z,7.90
2019-03-16T18:07:26.173Z,7.70
2019-03-16T18:10:06.892Z,7.60
2019-03-16T18:12:47.678Z,7.60
2019-03-16T18:15:28.736Z,7.50
2019-03-16T18:18:09.486Z,7.40
2019-03-16T18:20:50.138Z,7.30
2019-03-16T18:23:30.842Z,7.10
2019-03-16T18:26:11.616Z,7.10
2019-03-16T18:28:52.306Z,6.90
2019-03-16T18:31:32.962Z,6.70
2019-03-16T18:34:13.518Z,6.70
2019-03-16T18:36:54.297Z,6.60
2019-03-16T18:39:35.062Z,6.60
2019-03-16T18:42:15.935Z,6.50
2019-03-16T18:44:56.590Z,6.30
2019-03-16T18:47:37.270Z,6.20
2019-03-16T18:50:17.847Z,6.10
2019-03-16T18:52:58.541Z,6.00
2019-03-16T18:55:39.606Z,6.00
2019-03-16T18:58:20.537Z,5.90
2019-03-16T19:01:01.433Z,5.80
2019-03-16T19:03:42.410Z,5.80
2019-03-16T19:06:23.130Z,5.70
2019-03-16T19:09:04.765Z,5.70
2019-03-16T19:11:45.542Z,5.60
2019-03-16T19:14:26.345Z,5.50
2019-03-16T19:17:07.054Z,5.30
2019-03-16T19:19:47.978Z,5.40
2019-03-16T19:22:28.634Z,5.30
2019-03-16T19:25:09.518Z,5.20
2019-03-16T19:27:50.199Z,5.20
2019-03-16T19:30:31.010Z,5.00
2019-03-16T19:33:11.766Z,5.00
2019-03-16T19:35:52.690Z,4.90
2019-03-16T19:38:33.854Z,4.80
2019-03-16T19:41:14.533Z,4.80
2019-03-16T19:43:55.414Z,4.70
2019-03-16T19:46:36.187Z,4.60
2019-03-16T19:49:17.487Z,4.70
2019-03-16T19:51:58.351Z,4.70
2019-03-16T19:54:39.190Z,4.60
2019-03-16T19:57:19.688Z,4.60
2019-03-16T20:00:00.518Z,4.50
2019-03-16T20:02:48.624Z,4.50
2019-03-16T20:05:24.378Z,4.40
2019-03-16T20:08:03.479Z,4.40
2019-03-16T20:10:51.531Z,4.30
2019-03-16T20:13:39.557Z,4.30
2019-03-16T20:16:27.880Z,4.20
2019-03-16T20:18:56.720Z,4.20
2019-03-16T20:21:45.062Z,4.10
2019-03-16T20:24:33.353Z,4.20
2019-03-16T20:27:21.625Z,4.10
2019-03-16T20:30:09.816Z,4.00
2019-03-16T20:33:03.752Z,4.00
2019-03-16T20:35:47.614Z,4.00
2019-03-16T20:38:35.650Z,3.90
2019-03-16T20:41:35.589Z,3.90
2019-03-16T20:44:13.453Z,3.90
2019-03-16T20:47:01.738Z,3.80
2019-03-16T20:49:49.798Z,3.70
2019-03-16T20:52:37.822Z,3.60
2019-03-16T20:55:25.878Z,3.50
2019-03-16T20:58:07.009Z,3.40
2019-03-16T21:00:47.449Z,3.40
2019-03-16T21:03:28.266Z,3.40
2019-03-16T21:06:08.984Z,3.30
2019-03-16T21:09:02.163Z,3.30
2019-03-16T21:11:32.690Z,3.20
2019-03-16T21:14:13.370Z,3.10
2019-03-16T21:16:54.102Z,3.00
2019-03-16T21:19:34.856Z,2.90
2019-03-16T21:22:15.662Z,2.90
2019-03-16T21:24:56.364Z,2.90
2019-03-16T21:27:37.242Z,2.90
2019-03-16T21:30:18.090Z,2.80
2019-03-16T21:32:58.629Z,2.70
2019-03-16T21:35:39.518Z,2.70
2019-03-16T21:38:20.204Z,2.60
2019-03-16T21:41:01.126Z,2.60
2019-03-16T21:43:41.670Z,2.40
2019-03-16T21:46:22.593Z,2.40
2019-03-16T21:49:03.299Z,2.40
2019-03-16T21:51:44.109Z,2.20
2019-03-16T21:54:24.617Z,2.30
2019-03-16T21:57:05.678Z,2.30
2019-03-16T21:59:46.553Z,2.20
2019-03-16T22:02:27.377Z,2.20
2019-03-16T22:05:07.919Z,2.10
2019-03-16T22:07:48.817Z,2.10
2019-03-16T22:10:29.474Z,2.00
2019-03-16T22:13:10.004Z,1.90
2019-03-16T22:15:50.594Z,1.90
2019-03-16T22:18:31.645Z,1.80
2019-03-16T22:21:12.567Z,1.70
2019-03-16T22:23:53.542Z,1.70
2019-03-16T22:26:34.117Z,1.60
2019-03-16T22:29:14.789Z,1.60
2019-03-16T22:31:55.562Z,1.50
2019-03-16T22:34:36.364Z,1.50
2019-03-16T22:37:17.154Z,1.40
2019-03-16T22:39:58.017Z,1.40
2019-03-16T22:42:38.441Z,1.30
2019-03-16T22:45:19.018Z,1.40
2019-03-16T22:47:59.846Z,1.30
2019-03-16T22:50:40.641Z,1.30
2019-03-16T22:53:21.081Z,1.20
2019-03-16T22:56:01.873Z,1.20
2019-03-16T22:58:42.745Z,1.10
2019-03-16T23:01:23.658Z,1.20
2019-03-16T23:04:07.008Z,1.20
2019-03-16T23:06:47.301Z,1.20
2019-03-16T23:09:28.034Z,1.10
2019-03-16T23:12:09.198Z,1.00
2019-03-16T23:14:49.778Z,1.00
2019-03-16T23:17:30.760Z,1.00
2019-03-16T23:20:11.318Z,0.90
2019-03-16T23:22:52.521Z,0.90
2019-03-16T23:25:33.501Z,1.00
2019-03-16T23:28:14.033Z,1.00
2019-03-16T23:30:54.682Z,1.00
2019-03-16T23:33:35.154Z,1.00
2019-03-16T23:36:14.253Z,1.00
2019-03-16T23:39:02.481Z,1.00
2019-03-16T23:41:50.513Z,0.90
2019-03-16T23:44:38.545Z,0.90
2019-03-16T23:47:26.909Z,0.90
2019-03-16T23:50:15.026Z,0.70
2019-03-16T23:53:03.065Z,0.80
2019-03-16T23:55:51.182Z,0.70
2019-03-16T23:58:31.834Z,0.60
